Latest Coastal Weather Observations for Lake Macquarie - Cooranbong

IDN60701

Issued at 8:41 pm EST Friday 20 April 2018 (issued every 10 minutes, with the page automatically refreshed every 10 minutes)

About coastal observations | Map of coastal stations | Coastal observations for NSW | Marine services | Other Formats
Station Details ID: 061412 Name: LAKE MACQUARIE AWS Lat: -33.09 Lon: 151.46 Height: 6.0 m
Data from the previous 72 hours. | See also: Recent months at Lake Macquarie - Cooranbong
Date/Time
EST
Temp
°C
Wind Pressure Rain since
9am
mm
Weather Cloud Vis
km
Sea
Height
m
Swell
Dir  Spd
kts
Gust
kts
hPa Trend Height
m
Period
s
Dir
20/08:30pm 18.4 CALM 0 0 1021.1 - 0.0 - - - - - - -
20/08:00pm 19.8 WSW 2 3 1021.1 - 0.0 - - - - - - -
20/07:30pm 19.9 CALM 0 0 1020.8 - 0.0 - - - - - - -
20/07:00pm 20.2 S 1 2 1020.6 - 0.0 - - - - - - -
20/06:30pm 20.6 SSW 1 3 1020.3 - 0.0 - - - - - - -
20/06:00pm 20.6 S 2 5 1020.0 - 0.0 - - - - - - -
20/05:30pm 20.6 S 3 6 1019.7 - 0.0 - - - - - - -
20/05:00pm 21.1 SSE 3 5 1019.4 - 0.0 - - - - - - -
20/04:30pm 21.8 SSE 4 6 1019.1 - 0.0 - - - - - - -
20/04:00pm 22.9 S 4 7 1018.9 - 0.0 - - - - - - -
20/03:30pm 23.4 SSE 4 9 1019.0 - 0.0 - - - - - - -
20/03:00pm 23.7 SE 6 11 1018.9 - 0.0 - - - - - - -
20/02:30pm 24.4 ESE 4 8 1018.8 - 0.0 - - - - - - -
20/02:00pm 25.0 S 2 5 1018.8 - 0.0 - - - - - - -
20/01:30pm 24.8 S 3 5 1018.9 - 0.0 - - - - - - -
20/01:00pm 24.4 S 3 5 1019.2 - 0.0 - - - - - - -
20/12:30pm 23.9 ESE 4 9 1019.5 - 0.0 - - - - - - -
20/12:00pm 23.4 SE 4 7 1020.0 - 0.0 - - - - - - -
20/11:30am 23.0 SSE 4 8 1020.4 - 0.0 - - - - - - -
20/11:00am 23.0 SE 4 7 1020.8 - 0.0 - - - - - - -
20/10:30am 22.0 WSW 3 6 1020.9 - 0.0 - - - - - - -
20/10:00am 21.8 S 2 3 1021.1 - 0.0 - - - - - - -
20/09:30am 19.9 WSW 3 5 1021.3 - 0.0 - - - - - - -
20/09:00am 18.2 WSW 2 3 1021.4 - 41.8 - - - - - - -
20/08:30am 16.9 CALM 0 0 1021.4 - 41.8 - - - - - - -
20/08:00am 15.3 CALM 0 0 1021.3 - 41.8 - - - - - - -
20/07:30am 13.3 CALM 0 0 1020.8 - 41.8 - - - - - - -
20/07:00am 12.1 CALM 0 0 1020.2 - 41.8 - - - - - - -
20/06:30am 11.8 CALM 0 0 1019.7 - 41.8 - - - - - - -
20/06:00am 12.0 CALM 0 0 1019.4 - 41.8 - - - - - - -
20/05:30am 12.6 CALM 0 0 1019.3 - 41.8 - - - - - - -
20/05:00am 12.4 CALM 0 0 1019.2 - 41.8 - - - - - - -
20/04:30am 12.9 CALM 0 0 1019.0 - 41.8 - - - - - - -
20/04:00am 13.2 CALM 0 0 1018.6 - 41.8 - - - - - - -
20/03:30am 13.4 CALM 0 0 1018.5 - 41.8 - - - - - - -
20/03:00am 13.7 CALM 0 0 1018.5 - 41.8 - - - - - - -
20/02:30am 14.3 CALM 0 0 1018.9 - 41.8 - - - - - - -
20/02:00am 14.6 CALM 0 0 1019.1 - 41.8 - - - - - - -
20/01:30am 15.0 CALM 0 0 1019.2 - 41.6 - - - - - - -
20/01:00am 15.2 CALM 0 1 1019.3 - 41.6 - - - - - - -
20/12:30am 15.4 N 1 3 1019.1 - 41.6 - - - - - - -
20/12:00am 16.2 NW 2 3 1019.3 - 41.6 - - - - - - -
 
Date/Time
EST
Temp
°C
Wind Pressure Rain since
9am
mm
Weather Cloud Vis
km
Sea
Height
m
Swell
Dir  Spd
kts
Gust
kts
hPa Trend Height
m
Period
s
Dir
19/11:30pm 16.1 N 1 2 1019.7 - 41.6 - - - - - - -
19/11:00pm 16.9 CALM 0 0 1019.7 - 41.6 - - - - - - -
19/10:30pm 17.1 N 3 5 1019.5 - 41.6 - - - - - - -
19/10:00pm 17.5 CALM 0 0 1020.2 - 41.6 - - - - - - -
19/09:30pm 17.5 CALM 0 3 1019.8 - 41.4 - - - - - - -
19/09:00pm 17.8 W 3 5 1020.2 - 41.4 - - - - - - -
19/08:30pm 17.8 NNW 2 4 1020.3 - 41.4 - - - - - - -
19/08:00pm 17.9 N 5 7 1020.0 - 41.4 - - - - - - -
19/07:30pm 17.6 N 3 5 1019.7 - 41.0 - - - - - - -
19/07:00pm 17.7 W 2 3 1019.3 - 41.0 - - - - - - -
19/06:30pm 17.6 CALM 0 0 1019.0 - 40.2 - - - - - - -
19/06:00pm 17.5 NW 2 5 1019.0 - 39.8 Recent precip. - - - - - -
19/05:30pm 17.8 W 2 3 1019.1 - 39.2 - - - - - - -
19/05:00pm 17.9 NE 2 5 1018.8 - 36.8 - - - - - - -
19/04:30pm 20.5 W 6 13 1018.7 - 0.0 - - - - - - -
19/04:00pm 22.6 ESE 5 7 1017.5 - 0.0 - - - - - - -
19/03:30pm 22.9 E 6 9 1017.3 - 0.0 - - - - - - -
19/03:00pm 24.1 ESE 7 11 1017.4 - 0.0 - - - - - - -
19/02:30pm 24.0 ESE 6 9 1017.7 - 0.0 - - - - - - -
19/02:00pm 25.8 E 5 9 1017.5 - 0.0 - - - - - - -
19/01:30pm 25.6 ESE 5 8 1017.9 - 0.0 - - - - - - -
19/01:00pm 25.3 ESE 5 9 1018.2 - 0.0 - - - - - - -
19/12:30pm 24.2 E 5 7 1018.8 - 0.0 - - - - - - -
19/12:00pm 24.0 E 4 7 1019.3 - 0.0 - - - - - - -
19/11:30am 23.5 E 3 5 1020.0 - 0.0 - - - - - - -
19/11:00am 22.7 ENE 3 4 1020.5 - 0.0 - - - - - - -
19/10:30am 22.7 N 1 3 1020.9 - 0.0 - - - - - - -
19/10:00am 22.1 ESE 2 3 1021.3 - 0.0 - - - - - - -
19/09:30am 20.3 CALM 0 0 1021.7 - 0.0 - - - - - - -
19/09:00am 19.2 CALM 0 0 1021.8 - 0.0 - - - - - - -
19/08:30am 17.7 CALM 0 0 1022.0 - 0.0 - - - - - - -
19/08:00am 15.1 CALM 0 0 1022.0 - 0.0 - - - - - - -
19/07:30am 12.6 CALM 0 0 1021.8 - 0.0 - - - - - - -
19/07:00am 11.0 CALM 0 0 1021.4 - 0.0 - - - - - - -
19/06:30am 10.6 CALM 0 0 1021.5 - 0.0 - - - - - - -
19/06:00am 10.8 CALM 0 0 1021.4 - 0.0 - - - - - - -
19/05:30am 10.8 CALM 0 0 1021.2 - 0.0 - - - - - - -
19/05:00am 11.0 CALM 0 0 1021.1 - 0.0 - - - - - - -
19/04:30am 11.2 CALM 0 0 1021.0 - 0.0 - - - - - - -
19/04:00am 11.3 CALM 0 0 1021.0 - 0.0 - - - - - - -
19/03:30am 11.6 CALM 0 0 1021.1 - 0.0 - - - - - - -
19/03:00am 11.9 CALM 0 0 1021.3 - 0.0 - - - - - - -
19/02:30am 12.1 CALM 0 0 1021.7 - 0.0 - - - - - - -
19/02:00am 12.1 CALM 0 0 1021.9 - 0.0 - - - - - - -
19/01:30am 12.5 CALM 0 0 1022.1 - 0.0 - - - - - - -
19/01:00am 12.8 CALM 0 0 1022.2 - 0.0 - - - - - - -
19/12:30am 13.1 CALM 0 0 1022.3 - 0.0 - - - - - - -
19/12:00am 13.2 CALM 0 0 1022.6 - 0.0 - - - - - - -
 
Date/Time
EST
Temp
°C
Wind Pressure Rain since
9am
mm
Weather Cloud Vis
km
Sea
Height
m
Swell
Dir  Spd
kts
Gust
kts
hPa Trend Height
m
Period
s
Dir
18/11:30pm 13.9 CALM 0 0 1022.7 - 0.0 - - - - - - -
18/11:00pm 14.1 CALM 0 0 1022.9 - 0.0 - - - - - - -
18/10:30pm 14.7 CALM 0 0 1023.1 - 0.0 - - - - - - -
18/10:00pm 15.2 CALM 0 0 1023.5 - 0.0 - - - - - - -
18/09:30pm 15.8 CALM 0 0 1023.6 - 0.0 - - - - - - -
18/09:00pm 16.6 CALM 0 0 1023.6 - 0.0 - - - - - - -
18/08:30pm 16.9 CALM 0 0 1023.6 - 0.0 - - - - - - -
18/08:00pm 17.8 CALM 0 0 1023.6 - 0.0 - - - - - - -
18/07:30pm 18.1 CALM 0 0 1023.6 - 0.0 - - - - - - -
18/07:00pm 18.1 CALM 0 0 1023.4 - 0.0 - - - - - - -
18/06:30pm 18.8 CALM 0 0 1023.1 - 0.0 - - - - - - -
18/06:00pm 19.7 CALM 0 0 1023.1 - 0.0 - - - - - - -
18/05:30pm 20.1 CALM 0 0 1022.9 - 0.0 - - - - - - -
18/05:00pm 20.3 ESE 2 4 1022.7 - 0.0 - - - - - - -
18/04:30pm 20.6 ESE 3 5 1022.6 - 0.0 - - - - - - -
18/04:00pm 20.9 E 3 5 1022.6 - 0.0 - - - - - - -
18/03:30pm 20.9 ESE 3 6 1022.5 - 0.0 - - - - - - -
18/03:00pm 21.4 E 4 7 1022.6 - 0.0 - - - - - - -
18/02:30pm 22.0 E 5 9 1022.7 - 0.0 - - - - - - -
18/02:00pm 21.5 ESE 4 7 1023.0 - 0.0 - - - - - - -
18/01:30pm 21.4 ENE 4 7 1023.4 - 0.0 - - - - - - -
18/01:00pm 21.9 E 2 4 1023.7 - 0.0 - - - - - - -
18/12:30pm 21.5 E 2 4 1024.2 - 0.0 - - - - - - -
18/12:00pm 21.7 E 3 5 1024.6 - 0.0 - - - - - - -
18/11:30am 21.8 SE 2 6 1025.0 - 0.0 - - - - - - -
18/11:00am 21.4 ESE 2 4 1025.5 - 0.0 - - - - - - -
18/10:30am 20.9 SE 4 7 1025.9 - 0.0 - - - - - - -
18/10:00am 20.9 SE 3 5 1026.0 - 0.0 - - - - - - -
18/09:30am 19.6 SW 1 2 1026.2 - 0.0 - - - - - - -
18/09:00am 18.4 CALM 0 0 1026.3 - 0.0 - - - - - - -
18/08:30am 17.0 CALM 0 0 1026.3 - 0.0 - - - - - - -
18/08:00am 15.4 CALM 0 0 1026.1 - 0.0 - - - - - - -
18/07:30am 13.1 CALM 0 0 1025.8 - 0.0 - - - - - - -
18/07:00am 11.5 CALM 0 0 1025.6 - 0.0 - - - - - - -
18/06:30am 11.3 CALM 0 0 1025.4 - 0.0 - - - - - - -
18/06:00am 11.8 CALM 0 0 1025.3 - 0.0 - - - - - - -
18/05:30am 12.0 CALM 0 0 1025.3 - 0.0 - - - - - - -
18/05:00am 12.3 CALM 0 0 1025.1 - 0.0 - - - - - - -
18/04:30am 12.5 CALM 0 0 1025.1 - 0.0 - - - - - - -
18/04:00am 12.6 CALM 0 0 1025.0 - 0.0 - - - - - - -
18/03:30am 13.1 CALM 0 0 1024.8 - 0.0 - - - - - - -
18/03:00am 13.7 CALM 0 0 1025.0 - 0.0 - - - - - - -
18/02:30am 14.1 CALM 0 0 1025.4 - 0.0 - - - - - - -
18/02:00am 14.4 CALM 0 0 1025.6 - 0.0 - - - - - - -
18/01:30am 14.7 CALM 0 0 1025.7 - 0.0 - - - - - - -
18/01:00am 14.9 CALM 0 0 1025.7 - 0.0 - - - - - - -
18/12:30am 15.5 CALM 0 0 1025.7 - 0.0 - - - - - - -
18/12:00am 15.7 CALM 0 0 1025.7 - 0.0 - - - - - - -
 
Date/Time
EST
Temp
°C
Wind Pressure Rain since
9am
mm
Weather Cloud Vis
km
Sea
Height
m
Swell
Dir  Spd
kts
Gust
kts
hPa Trend Height
m
Period
s
Dir
17/11:30pm 16.0 CALM 0 0 1025.7 - 0.0 - - - - - - -
17/11:00pm 16.1 CALM 0 0 1025.8 - 0.0 - - - - - - -
17/10:30pm 16.9 CALM 0 0 1025.9 - 0.0 - - - - - - -
17/10:00pm 17.1 CALM 0 0 1025.8 - 0.0 - - - - - - -
17/09:30pm 17.4 CALM 0 0 1025.6 - 0.0 - - - - - - -
17/09:00pm 17.6 CALM 0 0 1025.5 - 0.0 - - - - - - -

Other Formats:

Comma delimited format used in spreadsheet applications
http://www.bom.gov.au/fwo/IDN60701/IDN60701.95767.axf

JavaScript Object Notation format (JSON) in row-major order
http://www.bom.gov.au/fwo/IDN60701/IDN60701.95767.json